Bridgewater, New Hampshire
Current Conditions -  °F | °C
As of 8:15 PM on Wednesday 22 Oct 2014 (Local Time) from K1P1 Reporting Station
Overcast Overcast  
Wind Chill: 50°   Ceiling: 3100
Heat Index: 50°   Visibility: 10mi
Dew Point: 48°   Wind: 3mph
Humidity: 93%   Direction: 200°SSW
Pressure: 30.02"   Gusts: NA
Location:  43.8032°N, 71.7266°W
Report Text: K1P1 230015Z AUTO 20003KT 10SM OVC031 10/09 A3002 RMK AO2 T01020091
Loading
Personal Weather Stations






























Interactive Weather Map
Tropical Storm Tracking
New forecast layout! Learn more

10-Day Weather Forecast

Advertisements
Track Severe Weather on mobile